createdAt,value
2023-03-06T00:02:14.294Z,98696.47
2023-03-06T00:07:05.883Z,98690.06
2023-03-06T00:11:57.608Z,98694.41
2023-03-06T00:16:49.253Z,98678.50
2023-03-06T00:21:43.775Z,98677.44
2023-03-06T00:26:36.735Z,98665.47
2023-03-06T00:31:28.524Z,98664.03
2023-03-06T00:36:20.130Z,98663.84
2023-03-06T00:41:13.016Z,98666.94
2023-03-06T00:46:05.819Z,98658.03
2023-03-06T00:50:57.481Z,98647.91
2023-03-06T00:55:50.503Z,98639.44
2023-03-06T01:00:42.318Z,98628.06
2023-03-06T01:05:35.900Z,98617.13
2023-03-06T01:10:28.227Z,98612.97
2023-03-06T01:15:20.458Z,98601.00
2023-03-06T01:20:17.068Z,98589.22
2023-03-06T01:25:09.226Z,98583.44
2023-03-06T01:30:00.855Z,98573.72
2023-03-06T01:34:52.596Z,98573.91
2023-03-06T01:39:44.344Z,98555.72
2023-03-06T01:44:35.929Z,98549.72
2023-03-06T01:49:38.691Z,98537.78
2023-03-06T01:54:47.482Z,98536.53
2023-03-06T01:59:42.400Z,98527.66
2023-03-06T02:04:35.285Z,98526.81
2023-03-06T02:09:30.197Z,98518.78
2023-03-06T02:14:22.166Z,98525.19
2023-03-06T02:19:32.156Z,98506.41
2023-03-06T02:24:48.661Z,98498.56
2023-03-06T02:29:40.518Z,98482.66
2023-03-06T02:34:38.183Z,98476.03
2023-03-06T02:39:33.739Z,98469.63
2023-03-06T02:44:28.126Z,98463.84
2023-03-06T02:49:19.754Z,98455.78
2023-03-06T02:54:11.431Z,98449.19
2023-03-06T02:59:03.598Z,98436.34
2023-03-06T03:03:55.526Z,98436.34
2023-03-06T03:08:47.103Z,98425.59
2023-03-06T03:13:38.802Z,98415.69
2023-03-06T03:18:30.748Z,98415.25
2023-03-06T03:23:22.842Z,98400.00
2023-03-06T03:28:14.460Z,98398.72
2023-03-06T03:33:06.274Z,98396.25
2023-03-06T03:37:57.911Z,98383.88
2023-03-06T03:42:49.540Z,98376.84
2023-03-06T03:47:41.314Z,98375.81
2023-03-06T03:52:33.080Z,98375.59
2023-03-06T03:57:24.666Z,98365.69
2023-03-06T04:02:17.170Z,98361.53
2023-03-06T04:07:09.641Z,98358.63
2023-03-06T04:12:01.402Z,98342.72
2023-03-06T04:16:52.964Z,98342.72
2023-03-06T04:21:44.582Z,98342.09
2023-03-06T04:26:36.980Z,98336.72
2023-03-06T04:31:28.718Z,98318.28
2023-03-06T04:36:34.386Z,98318.28
2023-03-06T04:41:26.170Z,98319.75
2023-03-06T04:46:17.933Z,98324.69
2023-03-06T04:51:12.813Z,98312.28
2023-03-06T04:56:04.855Z,98296.16
2023-03-06T05:00:56.465Z,98302.34
2023-03-06T05:05:48.131Z,98298.19
2023-03-06T05:10:39.889Z,98289.09
2023-03-06T05:15:31.604Z,98280.41
2023-03-06T05:20:23.200Z,98271.72
2023-03-06T05:25:14.850Z,98274.38
2023-03-06T05:30:07.679Z,98269.66
2023-03-06T05:34:59.389Z,98271.91
2023-03-06T05:39:51.615Z,98277.06
2023-03-06T05:44:43.281Z,98259.94
2023-03-06T05:49:36.294Z,98255.16
2023-03-06T05:54:28.005Z,98245.47
2023-03-06T05:59:19.626Z,98257.84
2023-03-06T06:04:11.653Z,98241.94
2023-03-06T06:09:03.694Z,98247.94
2023-03-06T06:13:55.405Z,98229.94
2023-03-06T06:18:47.114Z,98237.56
2023-03-06T06:23:38.880Z,98226.00
2023-03-06T06:28:31.452Z,98226.38
2023-03-06T06:33:24.072Z,98228.03
2023-03-06T06:38:15.776Z,98221.59
2023-03-06T06:43:07.602Z,98219.53
2023-03-06T06:47:59.297Z,98213.53
2023-03-06T06:52:51.031Z,98213.53
2023-03-06T06:57:43.631Z,98213.94
2023-03-06T07:02:35.323Z,98212.06
2023-03-06T07:07:27.301Z,98211.25
2023-03-06T07:12:18.899Z,98208.78
2023-03-06T07:17:10.504Z,98205.25
2023-03-06T07:22:02.552Z,98208.94
2023-03-06T07:26:54.196Z,98195.50
2023-03-06T07:31:45.944Z,98202.06
2023-03-06T07:36:39.655Z,98199.63
2023-03-06T07:41:31.287Z,98193.78
2023-03-06T07:46:22.975Z,98195.63
2023-03-06T07:51:20.592Z,98189.81
2023-03-06T07:56:12.853Z,98197.22
2023-03-06T08:01:12.610Z,98188.72
2023-03-06T08:06:13.329Z,98192.16
2023-03-06T08:11:05.692Z,98188.59
2023-03-06T08:15:57.424Z,98177.16
2023-03-06T08:20:49.096Z,98167.00
2023-03-06T08:25:40.704Z,98167.81
2023-03-06T08:30:32.328Z,98160.38
2023-03-06T08:35:23.934Z,98159.53
2023-03-06T08:40:15.717Z,98165.88
2023-03-06T08:45:08.222Z,98149.06
2023-03-06T08:50:00.802Z,98156.03
2023-03-06T08:54:52.556Z,98154.66
2023-03-06T08:59:44.194Z,98148.50
2023-03-06T09:04:35.834Z,98141.44
2023-03-06T09:09:27.474Z,98141.97
2023-03-06T09:14:19.135Z,98138.13
2023-03-06T09:19:10.833Z,98135.91
2023-03-06T09:24:02.519Z,98129.38
2023-03-06T09:28:54.741Z,98128.47
2023-03-06T09:33:47.383Z,98119.00
2023-03-06T09:38:39.035Z,98115.16
2023-03-06T09:43:42.326Z,98112.72
2023-03-06T09:49:01.065Z,98103.59
2023-03-06T09:54:05.116Z,98097.75
2023-03-06T09:59:07.494Z,98101.50
2023-03-06T10:04:27.815Z,98093.66
2023-03-06T10:09:31.470Z,98094.56
2023-03-06T10:14:40.255Z,98107.34
2023-03-06T10:19:34.790Z,98099.47
2023-03-06T10:24:45.284Z,98104.63
2023-03-06T10:30:18.359Z,98088.75
2023-03-06T10:35:21.802Z,98095.09
2023-03-06T10:40:23.862Z,98098.06
2023-03-06T10:45:17.428Z,98088.22
2023-03-06T10:50:29.018Z,98080.13
2023-03-06T10:55:39.026Z,98087.84
2023-03-06T11:00:38.157Z,98075.84
2023-03-06T11:05:29.985Z,98071.25
2023-03-06T11:10:23.350Z,98067.94
2023-03-06T11:15:15.080Z,98071.19
2023-03-06T11:20:20.577Z,98062.69
2023-03-06T11:25:16.577Z,98063.50
2023-03-06T11:30:24.182Z,98057.03
2023-03-06T11:35:59.457Z,98059.97
2023-03-06T11:41:01.574Z,98052.44
2023-03-06T11:46:07.192Z,98048.94
2023-03-06T11:51:11.648Z,98039.19
2023-03-06T11:56:15.850Z,98025.69
2023-03-06T12:01:35.257Z,98020.97
2023-03-06T12:06:36.029Z,98014.59
2023-03-06T12:11:44.267Z,98003.00
2023-03-06T12:17:13.538Z,98008.69
2023-03-06T12:22:21.151Z,98001.31
2023-03-06T12:27:23.238Z,97993.81
2023-03-06T12:32:35.329Z,97996.69
2023-03-06T12:37:47.723Z,98001.69
2023-03-06T12:43:13.327Z,97980.72
2023-03-06T12:48:15.024Z,97973.34
2023-03-06T12:53:14.885Z,97975.13
2023-03-06T12:58:28.295Z,97969.72
2023-03-06T13:03:30.731Z,97980.56
2023-03-06T13:08:44.257Z,97967.47
2023-03-06T13:13:47.354Z,97965.44
2023-03-06T13:18:41.948Z,97951.44
2023-03-06T13:23:33.555Z,97946.41
2023-03-06T13:28:51.566Z,97954.13
2023-03-06T13:33:43.227Z,97944.81
2023-03-06T13:38:40.810Z,97945.13
2023-03-06T13:43:42.464Z,97958.69
2023-03-06T13:48:45.113Z,97944.13
2023-03-06T13:54:10.736Z,97937.81
2023-03-06T13:59:17.426Z,97926.44
2023-03-06T14:04:27.610Z,97950.91
2023-03-06T14:09:26.919Z,97947.56
2023-03-06T14:14:27.295Z,97939.88
2023-03-06T14:19:19.586Z,97927.84
2023-03-06T14:24:16.946Z,97914.84
2023-03-06T14:29:23.011Z,97918.09
2023-03-06T14:34:20.725Z,97904.13
2023-03-06T14:39:35.509Z,97909.03
2023-03-06T14:44:27.113Z,97916.00
2023-03-06T14:49:21.164Z,97898.41
2023-03-06T14:54:28.757Z,97897.00
2023-03-06T14:59:29.883Z,97906.81
2023-03-06T15:04:48.337Z,97893.94
2023-03-06T15:09:44.822Z,97890.88
2023-03-06T15:14:39.127Z,97881.06
2023-03-06T15:19:40.472Z,97881.66
2023-03-06T15:24:36.794Z,97881.56
2023-03-06T15:29:28.525Z,97876.00
2023-03-06T15:34:25.300Z,97881.38
2023-03-06T15:39:40.089Z,97883.72
2023-03-06T15:44:32.906Z,97886.31
2023-03-06T15:49:25.095Z,97888.00
2023-03-06T15:54:16.803Z,97891.56
2023-03-06T15:59:17.009Z,97880.00
2023-03-06T16:04:08.648Z,97873.34
2023-03-06T16:09:00.259Z,97878.13
2023-03-06T16:13:52.687Z,97865.13
2023-03-06T16:18:44.313Z,97859.06
2023-03-06T16:23:38.890Z,97855.22
2023-03-06T16:28:34.728Z,97856.97
2023-03-06T16:33:26.528Z,97851.47
2023-03-06T16:38:18.118Z,97857.66
2023-03-06T16:43:10.772Z,97852.53
2023-03-06T16:48:02.470Z,97847.38
2023-03-06T16:52:55.713Z,97849.97
2023-03-06T16:57:47.610Z,97839.66
2023-03-06T17:02:39.587Z,97847.41
2023-03-06T17:07:33.511Z,97852.66
2023-03-06T17:12:25.241Z,97844.72
2023-03-06T17:17:17.187Z,97844.59
2023-03-06T17:22:08.815Z,97853.97
2023-03-06T17:27:00.431Z,97851.13
2023-03-06T17:31:52.024Z,97856.13
2023-03-06T17:36:44.109Z,97872.06
2023-03-06T17:41:35.787Z,97863.84
2023-03-06T17:46:27.700Z,97865.59
2023-03-06T17:51:19.409Z,97852.84
2023-03-06T17:56:13.906Z,97847.09
2023-03-06T18:01:17.685Z,97844.66
2023-03-06T18:06:09.629Z,97842.41
2023-03-06T18:11:06.056Z,97845.91
2023-03-06T18:15:57.731Z,97837.13
2023-03-06T18:20:49.705Z,97838.44
2023-03-06T18:25:41.654Z,97851.25
2023-03-06T18:30:37.492Z,97845.75
2023-03-06T18:35:29.245Z,97843.75
2023-03-06T18:40:20.935Z,97846.78
2023-03-06T18:45:12.962Z,97836.97
2023-03-06T18:50:05.143Z,97835.19
2023-03-06T18:54:56.996Z,97832.72
2023-03-06T18:59:48.658Z,97833.53
2023-03-06T19:04:40.343Z,97827.00
2023-03-06T19:09:32.017Z,97823.47
2023-03-06T19:14:23.658Z,97814.84
2023-03-06T19:19:15.414Z,97814.84
2023-03-06T19:24:13.284Z,97821.25
2023-03-06T19:29:04.953Z,97805.34
2023-03-06T19:33:57.259Z,97803.34
2023-03-06T19:38:52.688Z,97800.09
2023-03-06T19:43:44.335Z,97793.50
2023-03-06T19:48:35.970Z,97806.25
2023-03-06T19:53:28.356Z,97798.44
2023-03-06T19:58:20.026Z,97808.13
2023-03-06T20:03:11.648Z,97789.56
2023-03-06T20:08:03.530Z,97791.66
2023-03-06T20:12:55.282Z,97785.34
2023-03-06T20:17:46.932Z,97784.97
2023-03-06T20:22:38.757Z,97788.56
2023-03-06T20:27:30.435Z,97783.66
2023-03-06T20:32:22.239Z,97778.53
2023-03-06T20:37:13.849Z,97775.31
2023-03-06T20:42:06.048Z,97780.34
2023-03-06T20:46:58.032Z,97775.03
2023-03-06T20:51:50.474Z,97779.81
2023-03-06T20:56:44.954Z,97778.38
2023-03-06T21:01:41.148Z,97766.72
2023-03-06T21:06:33.600Z,97776.59
2023-03-06T21:11:25.625Z,97767.97
2023-03-06T21:16:20.556Z,97759.56
2023-03-06T21:21:18.533Z,97760.59
2023-03-06T21:26:15.718Z,97756.66
2023-03-06T21:31:09.571Z,97761.63
2023-03-06T21:36:01.480Z,97760.81
2023-03-06T21:40:53.255Z,97752.78
2023-03-06T21:45:46.292Z,97753.81
2023-03-06T21:50:37.973Z,97743.16
2023-03-06T21:55:29.627Z,97747.50
2023-03-06T22:00:23.940Z,97747.72
2023-03-06T22:05:16.122Z,97737.66
2023-03-06T22:10:12.029Z,97731.69
2023-03-06T22:15:05.025Z,97735.78
2023-03-06T22:19:56.734Z,97721.78
2023-03-06T22:24:48.563Z,97718.28
2023-03-06T22:29:40.195Z,97729.63
2023-03-06T22:34:32.315Z,97722.81
2023-03-06T22:39:24.051Z,97714.78
2023-03-06T22:44:18.970Z,97717.09
2023-03-06T22:49:12.738Z,97717.09
2023-03-06T22:54:05.665Z,97715.91
2023-03-06T22:58:57.941Z,97714.25
2023-03-06T23:03:52.121Z,97707.63
2023-03-06T23:08:48.305Z,97710.31
2023-03-06T23:13:40.160Z,97704.13
2023-03-06T23:18:31.973Z,97704.38
2023-03-06T23:23:23.667Z,97695.34
2023-03-06T23:28:15.823Z,97705.25
2023-03-06T23:33:08.344Z,97695.56
2023-03-06T23:38:00.418Z,97691.69
2023-03-06T23:42:52.797Z,97682.47
2023-03-06T23:47:44.470Z,97684.19
2023-03-06T23:52:36.557Z,97679.63
2023-03-06T23:57:29.521Z,97667.88
